Time;durP1;ratioP1;P1;durP2;ratioP2;P2;SDS_P1;SDS_P2;PMS_P1;PMS_P2;Temp;Humidity;BMP_temperature;BMP_pressure;BME280_temperature;BME280_humidity;BME280_pressure;Samples;Min_cycle;Max_cycle;Signal;HPM_P1;HPM_P2
2023/01/22 00:00:34;;;;;;;;;38.40;35.80;;;;;4.36;55.83;102608.72;2071140;27;46507;-60
2023/01/22 00:01:35;;;;;;;;;40.25;37.75;;;;;4.37;55.76;102612.25;2074581;28;46860;-60
2023/01/22 00:02:35;;;;;;;;;36.50;35.25;;;;;4.35;55.59;102616.56;2061614;28;46604;-60
2023/01/22 00:03:36;;;;;;;;;40.00;37.50;;;;;4.34;56.20;102609.53;2082933;28;46270;-59
2023/01/22 00:04:36;;;;;;;;;38.75;35.25;;;;;4.34;55.96;102610.41;2074454;27;46863;-63
2023/01/22 00:05:36;;;;;;;;;37.25;34.25;;;;;4.35;55.61;102612.19;2096573;27;45607;-60
2023/01/22 00:06:37;;;;;;;;;36.50;33.75;;;;;4.35;56.18;102611.31;2089858;27;46409;-61
2023/01/22 00:07:37;;;;;;;;;38.00;36.50;;;;;4.36;56.13;102608.72;2107237;27;46210;-63
2023/01/22 00:08:37;;;;;;;;;39.00;37.00;;;;;4.35;55.70;102612.19;2089419;27;46849;-61
2023/01/22 00:09:38;;;;;;;;;46.25;39.25;;;;;4.35;55.58;102613.94;2093460;27;46502;-62
2023/01/22 00:10:38;;;;;;;;;37.75;36.25;;;;;4.35;55.98;102604.31;2092839;27;46246;-63
2023/01/22 00:11:38;;;;;;;;;38.75;35.75;;;;;4.34;55.84;102599.91;2076171;27;46042;-61
2023/01/22 00:12:39;;;;;;;;;50.50;40.25;;;;;4.34;56.15;102594.63;2099312;27;45510;-61
2023/01/22 00:13:39;;;;;;;;;39.00;36.50;;;;;4.33;55.68;102600.75;2089146;27;46657;-62
2023/01/22 00:14:41;;;;;;;;;37.50;36.75;;;;;4.33;55.50;102602.47;2090369;27;46486;-62
2023/01/22 00:15:41;;;;;;;;;36.60;34.20;;;;;4.32;55.92;102605.91;2077464;27;46701;-60
2023/01/22 00:16:43;;;;;;;;;43.50;37.00;;;;;4.31;55.79;102606.75;2079526;28;45863;-62
2023/01/22 00:17:43;;;;;;;;;34.60;31.40;;;;;4.31;55.64;102612.91;2095907;27;46808;-62
2023/01/22 00:18:44;;;;;;;;;34.50;32.25;;;;;4.30;55.52;102607.59;2089661;27;45990;-61
2023/01/22 00:19:44;;;;;;;;;42.75;38.75;;;;;4.29;55.97;102605.81;2082649;27;46277;-60
2023/01/22 00:20:52;;;;;;;;;36.00;35.50;;;;;4.28;56.26;102610.19;2096381;27;46711;-61
2023/01/22 00:21:52;;;;;;;;;39.80;37.00;;;;;4.30;56.06;102604.97;2073553;27;46928;-61
2023/01/22 00:22:52;;;;;;;;;46.50;39.50;;;;;4.30;56.24;102605.88;2077612;27;46430;-60
2023/01/22 00:23:53;;;;;;;;;35.75;34.75;;;;;4.30;56.15;102605.88;2094149;27;46175;-60
2023/01/22 00:24:53;;;;;;;;;37.25;36.25;;;;;4.29;56.18;102600.56;2071708;27;45619;-61
2023/01/22 00:26:06;;;;;;;;;41.25;38.00;;;;;4.29;56.07;102603.19;2079617;27;46589;-62
2023/01/22 00:27:07;;;;;;;;;38.00;35.80;;;;;4.28;56.14;102598.78;2073163;27;46648;-60
2023/01/22 00:28:07;;;;;;;;;42.50;36.75;;;;;4.27;55.97;102599.63;2073623;27;46015;-60
2023/01/22 00:29:08;;;;;;;;;38.00;36.00;;;;;4.27;56.04;102599.63;2092833;27;47181;-62
2023/01/22 00:30:09;;;;;;;;;35.25;33.75;;;;;4.29;56.06;102597.94;2094283;27;46813;-61
2023/01/22 00:31:11;;;;;;;;;45.00;37.20;;;;;4.29;55.98;102592.69;2079483;28;46765;-61
2023/01/22 00:32:11;;;;;;;;;34.00;31.40;;;;;4.30;56.21;102597.09;2090670;27;46388;-60
2023/01/22 00:33:12;;;;;;;;;44.25;37.25;;;;;4.30;55.81;102592.72;2083273;27;46269;-61
2023/01/22 00:34:12;;;;;;;;;33.25;30.25;;;;;4.31;56.30;102599.78;2084330;27;46255;-59
2023/01/22 00:35:12;;;;;;;;;43.25;40.25;;;;;4.30;56.25;102597.97;2095774;27;46008;-60
2023/01/22 00:36:16;;;;;;;;;34.25;34.25;;;;;4.33;55.87;102602.47;2082450;27;46908;-62
2023/01/22 00:37:16;;;;;;;;;43.80;38.40;;;;;4.33;56.38;102602.47;2089914;27;45735;-61
2023/01/22 00:38:16;;;;;;;;;43.00;39.75;;;;;4.34;55.99;102599.91;2109522;27;46416;-61
2023/01/22 00:39:17;;;;;;;;;48.00;41.00;;;;;4.34;55.84;102592.00;2113684;27;46240;-61
2023/01/22 00:40:17;;;;;;;;;43.75;37.50;;;;;4.35;55.89;102596.44;2075156;28;46859;-59
2023/01/22 00:41:19;;;;;;;;;38.75;35.25;;;;;4.36;55.71;102595.56;2090108;27;46731;-61
2023/01/22 00:42:19;;;;;;;;;38.00;35.20;;;;;4.36;55.97;102595.56;2082385;27;46506;-61
2023/01/22 00:43:19;;;;;;;;;40.75;38.75;;;;;4.37;55.96;102596.47;2094399;27;46730;-61
2023/01/22 00:44:20;;;;;;;;;41.25;36.75;;;;;4.36;56.03;102598.22;2084094;27;47285;-62
2023/01/22 00:45:20;;;;;;;;;32.25;32.25;;;;;4.36;55.82;102603.47;2080833;27;46575;-60
2023/01/22 00:46:20;;;;;;;;;45.50;38.50;;;;;4.35;56.04;102603.41;2073305;28;46612;-61
2023/01/22 00:47:21;;;;;;;;;40.00;36.75;;;;;4.36;55.98;102606.09;2070588;28;46451;-60
2023/01/22 00:48:21;;;;;;;;;44.25;36.75;;;;;4.36;55.53;102602.56;2087064;28;46439;-60
2023/01/22 00:49:22;;;;;;;;;42.00;36.25;;;;;4.36;55.77;102608.72;2090875;27;46786;-60
2023/01/22 00:50:22;;;;;;;;;47.75;39.50;;;;;4.36;55.97;102603.47;2074597;27;46624;-61
2023/01/22 00:51:22;;;;;;;;;48.25;39.75;;;;;4.37;55.65;102596.47;2087195;27;46175;-61
2023/01/22 00:52:23;;;;;;;;;41.50;38.50;;;;;4.37;55.45;102601.72;2077497;27;45201;-61
2023/01/22 00:53:23;;;;;;;;;43.00;37.75;;;;;4.36;55.87;102598.22;2076648;28;46286;-62
2023/01/22 00:54:23;;;;;;;;;38.75;37.25;;;;;4.36;55.59;102594.69;2096692;27;46241;-61
2023/01/22 00:55:23;;;;;;;;;44.50;38.25;;;;;4.35;55.67;102596.44;2070933;27;46246;-62
2023/01/22 00:56:24;;;;;;;;;39.25;36.25;;;;;4.34;55.72;102592.00;2095867;27;46283;-62
2023/01/22 00:57:24;;;;;;;;;34.50;32.25;;;;;4.33;55.62;102589.34;2091464;27;46376;-63
2023/01/22 00:58:25;;;;;;;;;42.00;36.25;;;;;4.33;55.63;102591.97;2083669;27;45481;-62
2023/01/22 00:59:26;;;;;;;;;39.20;33.80;;;;;4.33;55.49;102591.97;2096426;27;45316;-61
2023/01/22 01:00:26;;;;;;;;;40.00;37.00;;;;;4.32;55.62;102592.78;2085608;27;46861;-62
2023/01/22 01:01:26;;;;;;;;;43.25;37.00;;;;;4.31;55.45;102591.00;2090897;27;46778;-61
2023/01/22 01:02:27;;;;;;;;;40.25;35.75;;;;;4.32;55.46;102582.25;2087821;27;46287;-61
2023/01/22 01:03:30;;;;;;;;;45.25;40.25;;;;;4.32;55.70;102588.44;2066759;28;46169;-62
2023/01/22 01:04:31;;;;;;;;;49.20;41.40;;;;;4.32;55.36;102582.25;2070776;27;46076;-62
2023/01/22 01:05:32;;;;;;;;;50.25;40.50;;;;;4.33;55.64;102582.34;2093081;27;46555;-62
2023/01/22 01:06:32;;;;;;;;;37.25;32.50;;;;;4.32;55.37;102580.56;2082006;27;46888;-62
2023/01/22 01:07:32;;;;;;;;;35.25;34.50;;;;;4.31;55.62;102581.38;2096711;27;46369;-61
2023/01/22 01:08:36;;;;;;;;;39.75;38.50;;;;;4.30;55.88;102579.59;2085661;27;46603;-61
2023/01/22 01:09:37;;;;;;;;;40.60;38.40;;;;;4.30;55.69;102582.22;2086619;27;46988;-60
2023/01/22 01:10:37;;;;;;;;;38.00;34.50;;;;;4.30;55.61;102576.97;2108195;27;46499;-62
2023/01/22 01:11:37;;;;;;;;;43.50;37.25;;;;;4.30;55.47;102583.94;2112297;27;46534;-60
2023/01/22 01:12:38;;;;;;;;;41.00;34.25;;;;;4.29;55.55;102577.81;2094400;27;46946;-61
2023/01/22 01:13:41;;;;;;;;;39.75;36.00;;;;;4.29;55.66;102582.16;2094349;27;46809;-61
2023/01/22 01:14:42;;;;;;;;;40.40;37.80;;;;;4.28;55.46;102575.13;2078659;28;46650;-62
2023/01/22 01:15:42;;;;;;;;;36.25;33.50;;;;;4.27;55.47;102571.59;2095620;27;46355;-61
2023/01/22 01:16:42;;;;;;;;;41.25;39.00;;;;;4.27;55.60;102574.22;2088519;27;46664;-61
2023/01/22 01:17:45;;;;;;;;;39.50;38.00;;;;;4.27;55.60;102579.50;2084960;27;46410;-62
2023/01/22 01:18:46;;;;;;;;;47.60;40.20;;;;;4.28;55.33;102583.00;2075167;27;46708;-62
2023/01/22 01:19:46;;;;;;;;;41.60;37.00;;;;;4.29;55.83;102584.78;2079540;27;46944;-60
2023/01/22 01:20:52;;;;;;;;;41.00;39.00;;;;;4.29;55.96;102588.31;2077767;27;46669;-61
2023/01/22 01:21:53;;;;;;;;;40.20;37.20;;;;;4.30;55.70;102583.94;2095874;27;46598;-61
2023/01/22 01:22:53;;;;;;;;;36.50;34.50;;;;;4.29;55.67;102580.44;2079384;27;46383;-61
2023/01/22 01:23:55;;;;;;;;;44.25;37.75;;;;;4.29;55.54;102585.69;2094328;27;45786;-61
2023/01/22 01:24:55;;;;;;;;;42.00;39.60;;;;;4.28;55.87;102586.53;2094465;27;45939;-62
2023/01/22 01:25:55;;;;;;;;;45.25;38.50;;;;;4.30;55.66;102587.47;2079801;27;46346;-64
2023/01/22 01:26:56;;;;;;;;;55.50;43.75;;;;;4.30;55.81;102590.09;2093988;27;46778;-61
2023/01/22 01:27:56;;;;;;;;;41.75;37.00;;;;;4.32;56.03;102587.50;2087050;27;46681;-61
2023/01/22 01:28:56;;;;;;;;;41.50;37.75;;;;;4.31;55.79;102588.38;2086154;27;46575;-60
2023/01/22 01:29:57;;;;;;;;;47.50;40.50;;;;;4.33;55.81;102591.97;2093731;27;46232;-61
2023/01/22 01:31:04;;;;;;;;;42.60;38.00;;;;;4.34;55.81;102593.75;2079741;27;46840;-62
2023/01/22 01:32:05;;;;;;;;;40.60;37.60;;;;;4.35;55.57;102601.69;2077916;27;47221;-63
2023/01/22 01:33:05;;;;;;;;;46.00;39.25;;;;;4.34;55.58;102594.63;2075008;27;46689;-61
2023/01/22 01:34:05;;;;;;;;;42.00;39.00;;;;;4.34;55.44;102586.75;2079032;27;46252;-62
2023/01/22 01:35:06;;;;;;;;;40.25;36.75;;;;;4.36;55.41;102600.84;2074498;27;46397;-62
2023/01/22 01:36:19;;;;;;;;;42.25;37.50;;;;;4.36;55.43;102594.69;2086558;27;46549;-62
2023/01/22 01:37:19;;;;;;;;;48.40;39.40;;;;;4.35;55.38;102596.44;2072444;27;45801;-63
2023/01/22 01:38:20;;;;;;;;;45.25;39.25;;;;;4.35;55.40;102603.41;2089825;27;46270;-61
2023/01/22 01:39:20;;;;;;;;;47.25;40.25;;;;;4.36;55.51;102597.31;2103455;27;46716;-61
2023/01/22 01:40:20;;;;;;;;;47.00;40.25;;;;;4.35;55.70;102598.16;2103859;28;46333;-61
2023/01/22 01:41:24;;;;;;;;;45.00;38.75;;;;;4.36;55.78;102597.31;2105882;27;46781;-60
2023/01/22 01:42:30;;;;;;;;;40.40;37.40;;;;;4.35;55.80;102588.53;2104794;27;46650;-60
2023/01/22 01:43:31;;;;;;;;;40.60;38.60;;;;;4.36;55.42;102597.31;2111555;27;46529;-61
2023/01/22 01:44:31;;;;;;;;;43.00;38.00;;;;;4.37;55.66;102593.84;2107939;27;46723;-61
2023/01/22 01:45:33;;;;;;;;;53.75;43.00;;;;;4.37;55.91;102596.47;2095681;28;46241;-63
2023/01/22 01:46:37;;;;;;;;;40.60;37.80;;;;;4.37;55.56;102596.47;2109716;27;46062;-61
2023/01/22 01:47:38;;;;;;;;;41.00;37.00;;;;;4.36;55.90;102590.31;2110639;27;46579;-60
2023/01/22 01:48:42;;;;;;;;;18.50;13.75;;;;;4.37;55.63;102591.22;2113026;27;46741;-61
2023/01/22 01:49:47;;;;;;;;;46.60;39.40;;;;;4.37;55.87;102591.22;2107864;27;46735;-61
2023/01/22 01:50:55;;;;;;;;;42.20;38.20;;;;;4.37;55.76;102592.09;2104243;27;46807;-61
2023/01/22 01:52:00;;;;;;;;;45.20;39.80;;;;;4.38;55.63;102587.75;2104141;27;45919;-61
2023/01/22 01:53:01;;;;;;;;;43.00;37.60;;;;;4.41;55.41;102590.47;2103741;28;46576;-60
2023/01/22 01:54:03;;;;;;;;;41.60;37.00;;;;;4.42;55.75;102581.72;2103882;27;46410;-62
2023/01/22 01:55:05;;;;;;;;;44.60;40.60;;;;;4.42;55.91;102587.88;2099078;28;45825;-63
2023/01/22 01:56:11;;;;;;;;;42.80;38.60;;;;;4.42;55.87;102585.25;2103739;27;46902;-63
2023/01/22 01:57:16;;;;;;;;;44.40;38.00;;;;;4.42;55.56;102587.00;2110949;27;46155;-62
2023/01/22 01:58:20;;;;;;;;;43.20;37.60;;;;;4.41;56.00;102590.47;2110530;27;46496;-63
2023/01/22 01:59:22;;;;;;;;;43.00;38.00;;;;;4.40;55.43;102589.56;2107362;27;47033;-62
2023/01/22 02:00:25;;;;;;;;;46.20;40.40;;;;;4.40;55.49;102592.19;2111101;27;46456;-62
2023/01/22 02:01:26;;;;;;;;;42.40;39.00;;;;;4.40;55.14;102592.19;2097722;27;46093;-62
2023/01/22 02:02:26;;;;;;;;;43.20;40.00;;;;;4.39;55.15;102585.16;2107607;27;46034;-62
2023/01/22 02:03:28;;;;;;;;;45.75;37.00;;;;;4.38;55.55;102586.00;2104228;28;46778;-61
2023/01/22 02:04:29;;;;;;;;;40.80;37.00;;;;;4.39;55.64;102579.91;2099460;28;46591;-63
2023/01/22 02:05:36;;;;;;;;;48.00;39.50;;;;;4.41;55.40;102575.59;2101162;28;46842;-61
2023/01/22 02:06:36;;;;;;;;;47.40;41.00;;;;;4.41;55.86;102570.31;2104232;28;47907;-60
2023/01/22 02:07:37;;;;;;;;;42.00;36.25;;;;;4.42;55.84;102564.22;2100785;27;46703;-62
2023/01/22 02:08:39;;;;;;;;;29.50;28.75;;;;;4.43;55.17;102571.25;2110355;27;45235;-62
2023/01/22 02:09:39;;;;;;;;;40.40;34.00;;;;;4.43;55.25;102566.00;2111288;27;46583;-60
2023/01/22 02:10:40;;;;;;;;;42.75;40.50;;;;;4.43;55.90;102579.16;2103764;27;46307;-61
2023/01/22 02:11:41;;;;;;;;;39.00;36.75;;;;;4.43;55.44;102580.88;2080443;27;47010;-61
2023/01/22 02:12:41;;;;;;;;;48.60;41.00;;;;;4.42;55.86;102584.38;2091604;27;46583;-61
2023/01/22 02:13:47;;;;;;;;;41.00;38.00;;;;;4.42;55.72;102589.63;2093809;27;46606;-60
2023/01/22 02:14:48;;;;;;;;;42.80;37.80;;;;;4.40;55.65;102588.69;2070823;28;47018;-62
2023/01/22 02:15:49;;;;;;;;;47.00;39.60;;;;;4.41;55.71;102585.22;2088249;27;46726;-59
2023/01/22 02:16:59;;;;;;;;;41.75;39.25;;;;;4.40;55.45;102586.06;2090703;27;46514;-60
2023/01/22 02:17:59;;;;;;;;;46.80;40.60;;;;;4.40;55.70;102591.31;2078712;28;46626;-61
2023/01/22 02:19:01;;;;;;;;;47.00;41.25;;;;;4.38;55.37;102599.16;2089699;27;46278;-61
2023/01/22 02:20:02;;;;;;;;;49.80;40.00;;;;;4.37;55.83;102594.75;2082600;27;47077;-61
2023/01/22 02:21:02;;;;;;;;;45.50;39.75;;;;;4.37;55.85;102592.09;2078619;27;45715;-60
2023/01/22 02:22:11;;;;;;;;;40.00;37.00;;;;;4.37;55.52;102591.22;2088445;27;45784;-60
2023/01/22 02:23:11;;;;;;;;;45.80;38.40;;;;;4.37;55.43;102593.84;2075180;27;46228;-61
2023/01/22 02:24:14;;;;;;;;;45.75;36.75;;;;;4.37;55.98;102589.47;2075527;28;46343;-61
2023/01/22 02:25:15;;;;;;;;;41.20;39.00;;;;;4.37;55.60;102591.22;2086081;27;46236;-60
2023/01/22 02:26:17;;;;;;;;;43.80;38.60;;;;;4.37;55.93;102596.47;2078688;27;46790;-62
2023/01/22 02:27:17;;;;;;;;;43.00;40.00;;;;;4.36;55.96;102589.44;2085918;27;46466;-61
2023/01/22 02:28:18;;;;;;;;;43.50;38.00;;;;;4.36;55.51;102592.94;2086236;27;46337;-61
2023/01/22 02:29:19;;;;;;;;;46.25;39.00;;;;;4.35;56.02;102593.78;2078705;27;46419;-61
2023/01/22 02:30:19;;;;;;;;;41.75;37.75;;;;;4.35;55.79;102596.44;2085838;27;45778;-61
2023/01/22 02:31:19;;;;;;;;;36.75;35.00;;;;;4.33;55.71;102592.84;2083598;27;46627;-61
2023/01/22 02:32:20;;;;;;;;;46.75;39.00;;;;;4.33;56.11;102592.84;2080368;27;45684;-61
2023/01/22 02:33:21;;;;;;;;;44.00;37.40;;;;;4.33;56.04;102584.97;2073032;27;45087;-63
2023/01/22 02:34:24;;;;;;;;;40.25;35.25;;;;;4.33;55.83;102595.47;2070232;27;46086;-62
2023/01/22 02:35:24;;;;;;;;;50.40;41.00;;;;;4.33;56.04;102595.47;2062338;28;45885;-62
2023/01/22 02:36:25;;;;;;;;;55.00;42.25;;;;;4.33;55.55;102600.75;2072308;28;46452;-61
2023/01/22 02:37:25;;;;;;;;;45.50;39.50;;;;;4.33;55.67;102597.22;2078129;28;46372;-62
2023/01/22 02:38:25;;;;;;;;;43.25;38.25;;;;;4.31;55.72;102599.78;2078533;27;46280;-61
2023/01/22 02:39:26;;;;;;;;;48.75;40.75;;;;;4.31;55.44;102593.63;2078009;27;46414;-61
2023/01/22 02:40:28;;;;;;;;;46.00;40.75;;;;;4.29;55.41;102595.31;2062718;28;45604;-61
2023/01/22 02:41:29;;;;;;;;;41.20;38.20;;;;;4.29;55.81;102592.69;2062318;28;46297;-62
2023/01/22 02:42:29;;;;;;;;;46.50;40.00;;;;;4.28;55.41;102593.53;2062283;28;46786;-61
2023/01/22 02:43:29;;;;;;;;;51.50;43.00;;;;;4.27;55.77;102583.84;2062275;28;46435;-62
2023/01/22 02:44:30;;;;;;;;;47.50;41.50;;;;;4.26;55.80;102580.34;2095817;28;45872;-62
2023/01/22 02:45:30;;;;;;;;;49.25;40.50;;;;;4.25;55.63;102586.44;2095214;28;46357;-60
2023/01/22 02:46:31;;;;;;;;;43.50;40.25;;;;;4.24;55.70;102582.03;2067413;28;46403;-60
2023/01/22 02:47:33;;;;;;;;;44.50;37.75;;;;;4.25;55.43;102596.06;2060995;28;46317;-62
2023/01/22 02:48:34;;;;;;;;;50.80;42.60;;;;;4.24;55.68;102591.66;2045131;28;45884;-61
2023/01/22 02:49:34;;;;;;;;;53.00;41.50;;;;;4.23;55.33;102588.13;2051761;28;45126;-61
2023/01/22 02:50:35;;;;;;;;;46.00;40.25;;;;;4.24;55.60;102584.66;2053354;28;46416;-61
2023/01/22 02:51:35;;;;;;;;;51.25;42.00;;;;;4.26;55.35;102589.97;2063150;28;46276;-61
2023/01/22 02:52:35;;;;;;;;;45.25;40.25;;;;;4.25;55.64;102585.53;2072397;28;46589;-63
2023/01/22 02:53:35;;;;;;;;;48.75;40.25;;;;;4.25;55.20;102581.19;2064820;28;46520;-60
2023/01/22 02:54:36;;;;;;;;;39.00;37.50;;;;;4.26;55.91;102584.69;2058367;28;46451;-62
2023/01/22 02:55:37;;;;;;;;;53.00;44.25;;;;;4.28;55.69;102590.91;2064858;28;46486;-62
2023/01/22 02:56:37;;;;;;;;;50.00;43.00;;;;;4.29;55.52;102595.31;2070684;28;45723;-60
2023/01/22 02:57:38;;;;;;;;;50.50;40.75;;;;;4.30;55.47;102586.56;2080782;28;45980;-61
2023/01/22 02:58:38;;;;;;;;;48.75;42.25;;;;;4.33;55.72;102597.22;2061728;28;46813;-61
2023/01/22 02:59:38;;;;;;;;;52.25;41.00;;;;;4.34;55.51;102599.00;2076537;28;46536;-61
2023/01/22 03:00:39;;;;;;;;;48.50;42.00;;;;;4.33;55.77;102607.72;2072927;28;45922;-60
2023/01/22 03:01:39;;;;;;;;;48.00;40.00;;;;;4.30;55.77;102600.59;2064277;28;45843;-62
2023/01/22 03:02:39;;;;;;;;;49.25;39.00;;;;;4.33;55.74;102598.13;2072134;28;45726;-62
2023/01/22 03:03:40;;;;;;;;;52.50;43.25;;;;;4.33;55.54;102592.84;2056220;28;46471;-61
2023/01/22 03:04:40;;;;;;;;;57.75;45.25;;;;;4.32;55.28;102588.44;2056505;28;45920;-62
2023/01/22 03:05:51;;;;;;;;;56.25;44.50;;;;;4.32;55.59;102593.69;2063264;28;46962;-62
2023/01/22 03:06:51;;;;;;;;;43.20;39.80;;;;;4.31;55.32;102586.63;2054236;28;46185;-61
2023/01/22 03:07:51;;;;;;;;;52.25;43.25;;;;;4.30;55.20;102594.47;2071596;28;45467;-61
2023/01/22 03:08:57;;;;;;;;;52.50;42.75;;;;;4.28;55.55;102586.53;2053190;28;45542;-60
2023/01/22 03:09:58;;;;;;;;;47.80;40.80;;;;;4.26;55.19;102590.84;2053805;28;46967;-62
2023/01/22 03:10:58;;;;;;;;;54.00;46.75;;;;;4.25;55.53;102591.69;2084765;28;46707;-60
2023/01/22 03:11:58;;;;;;;;;54.25;45.25;;;;;4.26;55.18;102595.22;2077276;28;46315;-60
2023/01/22 03:21:11;;;;;;;;;50.60;44.60;;;;;4.25;55.56;102591.69;2074995;27;47066;-61
2023/01/22 03:22:14;;;;;;;;;46.00;41.20;;;;;4.23;55.42;102589.84;2076137;27;46406;-60
2023/01/22 03:23:14;;;;;;;;;44.40;39.80;;;;;4.21;55.30;102595.06;2080007;27;46997;-61
2023/01/22 03:24:15;;;;;;;;;54.50;45.00;;;;;4.22;55.18;102590.69;2081074;27;46251;-61
2023/01/22 03:25:15;;;;;;;;;47.50;42.25;;;;;4.22;55.37;102588.06;2082023;27;46319;-61
2023/01/22 03:26:17;;;;;;;;;55.00;42.50;;;;;4.22;55.52;102586.34;2078250;27;45452;-61
2023/01/22 03:27:24;;;;;;;;;50.40;40.20;;;;;4.23;55.71;102579.34;2082698;27;46477;-61
2023/01/22 03:28:25;;;;;;;;;45.00;38.80;;;;;4.24;55.63;102587.28;2081182;27;46321;-61
2023/01/22 03:29:25;;;;;;;;;55.20;43.40;;;;;4.26;55.55;102584.69;2071685;27;46670;-60
2023/01/22 03:30:26;;;;;;;;;44.25;39.25;;;;;4.26;55.34;102580.34;2082129;27;46889;-60
2023/01/22 03:31:26;;;;;;;;;50.25;41.75;;;;;4.26;55.18;102585.59;2074550;27;46906;-61
2023/01/22 03:32:27;;;;;;;;;52.25;43.00;;;;;4.27;55.34;102583.84;2071120;27;45917;-61
2023/01/22 03:33:27;;;;;;;;;44.50;39.00;;;;;4.28;55.66;102577.75;2080724;27;46770;-61
2023/01/22 03:34:28;;;;;;;;;57.50;46.50;;;;;4.29;55.69;102585.69;2079734;28;46291;-61
2023/01/22 03:35:29;;;;;;;;;55.25;43.75;;;;;4.31;55.21;102577.84;2083328;27;46361;-62
2023/01/22 03:36:30;;;;;;;;;52.60;44.20;;;;;4.30;55.25;102576.97;2083407;27;46755;-60
2023/01/22 03:37:30;;;;;;;;;44.00;39.50;;;;;4.31;55.68;102575.22;2079700;27;46546;-61
2023/01/22 03:38:31;;;;;;;;;48.75;41.75;;;;;4.31;55.11;102578.75;2083574;27;46567;-61
2023/01/22 03:39:31;;;;;;;;;36.50;33.50;;;;;4.33;55.22;102579.72;2083217;27;46673;-60
2023/01/22 03:40:32;;;;;;;;;57.25;45.50;;;;;4.34;55.70;102580.59;2079756;28;46517;-60
2023/01/22 03:41:32;;;;;;;;;51.75;42.75;;;;;4.35;55.72;102582.38;2083010;27;46799;-59
2023/01/22 03:42:33;;;;;;;;;54.50;44.00;;;;;4.36;55.26;102587.69;2071035;27;46395;-60
2023/01/22 03:43:33;;;;;;;;;44.75;40.25;;;;;4.37;55.54;102585.97;2070246;27;46347;-60
2023/01/22 03:44:34;;;;;;;;;47.75;41.00;;;;;4.37;55.37;102591.22;2081465;27;46415;-60
2023/01/22 03:45:35;;;;;;;;;44.50;40.25;;;;;4.37;55.51;102580.69;2080137;27;46516;-60
2023/01/22 03:46:35;;;;;;;;;53.75;44.75;;;;;4.35;54.96;102588.53;2079314;27;46476;-61
2023/01/22 03:47:35;;;;;;;;;50.25;40.75;;;;;4.35;55.53;102587.66;2080469;27;46231;-62
2023/01/22 03:48:36;;;;;;;;;42.00;38.00;;;;;4.34;55.28;102588.50;2079090;28;46436;-59
2023/01/22 03:49:36;;;;;;;;;45.25;40.25;;;;;4.33;55.34;102584.97;2078422;27;46286;-61
2023/01/22 03:50:36;;;;;;;;;50.25;43.00;;;;;4.33;55.42;102584.97;2071595;27;46326;-60
2023/01/22 03:51:37;;;;;;;;;44.00;39.50;;;;;4.34;55.60;102586.75;2082406;28;47786;-61
2023/01/22 03:52:37;;;;;;;;;47.50;41.75;;;;;4.34;55.52;102588.50;2087626;28;46113;-60
2023/01/22 03:53:38;;;;;;;;;47.00;40.25;;;;;4.35;55.67;102591.16;2081814;27;46465;-60
2023/01/22 03:54:39;;;;;;;;;50.20;41.40;;;;;4.35;55.43;102587.66;2076244;27;45968;-61
2023/01/22 03:55:39;;;;;;;;;42.25;39.00;;;;;4.36;55.62;102595.56;2079719;27;46923;-60
2023/01/22 03:56:40;;;;;;;;;45.00;40.00;;;;;4.36;55.16;102595.56;2089239;27;46219;-61
2023/01/22 03:57:41;;;;;;;;;44.40;39.00;;;;;4.36;55.31;102592.06;2099284;27;46608;-59
2023/01/22 03:58:41;;;;;;;;;46.00;39.50;;;;;4.37;55.26;102594.75;2082891;27;46775;-59
2023/01/22 03:59:42;;;;;;;;;48.00;42.75;;;;;4.36;55.20;102587.69;2095972;27;45523;-60
2023/01/22 04:00:42;;;;;;;;;41.00;37.00;;;;;4.36;55.51;102592.94;2096333;27;46209;-60
2023/01/22 04:01:43;;;;;;;;;53.75;42.75;;;;;4.34;55.60;102584.13;2080815;27;46302;-60
2023/01/22 04:02:43;;;;;;;;;49.50;40.00;;;;;4.34;55.41;102592.00;2093073;27;47163;-61
2023/01/22 04:03:44;;;;;;;;;45.75;41.00;;;;;4.34;55.22;102586.75;2083264;27;45768;-61
2023/01/22 04:04:46;;;;;;;;;45.00;37.40;;;;;4.33;55.35;102582.34;2088362;27;47059;-60
2023/01/22 04:05:46;;;;;;;;;51.40;40.80;;;;;4.33;56.04;102584.09;2074685;27;45726;-61
2023/01/22 04:06:47;;;;;;;;;47.00;39.00;;;;;4.32;55.33;102580.56;2083370;27;46711;-60
2023/01/22 04:07:49;;;;;;;;;45.75;40.25;;;;;4.33;55.90;102577.09;2096436;27;46451;-60
2023/01/22 04:08:51;;;;;;;;;50.60;40.40;;;;;4.32;55.51;102588.44;2094503;27;46865;-60
2023/01/22 04:09:51;;;;;;;;;41.60;38.20;;;;;4.30;55.26;102581.31;2085736;27;46925;-60
2023/01/22 04:10:51;;;;;;;;;34.75;33.00;;;;;4.29;55.30;102577.81;2073220;27;46476;-61
2023/01/22 04:11:52;;;;;;;;;38.75;37.00;;;;;4.28;54.83;102583.00;2092027;27;46468;-62
2023/01/22 04:12:53;;;;;;;;;40.50;37.00;;;;;4.25;55.31;102578.56;2093948;27;46215;-61
2023/01/22 04:13:54;;;;;;;;;39.60;37.60;;;;;4.24;55.14;102582.03;2106834;27;46742;-61
2023/01/22 04:14:54;;;;;;;;;39.20;36.60;;;;;4.23;54.77;102582.88;2112227;27;46635;-62
2023/01/22 04:15:55;;;;;;;;;29.50;29.50;;;;;4.23;55.14;102587.22;2085245;27;46436;-60
2023/01/22 04:16:55;;;;;;;;;37.75;34.25;;;;;4.22;55.06;102580.19;2095130;27;46418;-59
2023/01/22 04:17:55;;;;;;;;;49.50;40.00;;;;;4.22;55.00;102590.69;2087077;27;46594;-61
2023/01/22 04:18:55;;;;;;;;;34.25;33.50;;;;;4.21;54.64;102584.56;2102903;27;46542;-60
2023/01/22 04:19:56;;;;;;;;;35.25;32.25;;;;;4.21;54.80;102578.41;2087471;27;45982;-61
2023/01/22 04:20:56;;;;;;;;;42.00;36.50;;;;;4.20;55.00;102584.50;2072200;28;46338;-61
2023/01/22 04:21:57;;;;;;;;;30.25;30.25;;;;;4.18;54.77;102587.06;2099658;27;46624;-61
2023/01/22 04:22:57;;;;;;;;;35.00;33.50;;;;;4.15;54.86;102571.19;2081152;27;45594;-62
2023/01/22 04:23:57;;;;;;;;;40.50;35.50;;;;;4.14;54.45;102579.91;2101742;27;47034;-61
2023/01/22 04:24:57;;;;;;;;;40.75;37.25;;;;;4.14;54.99;102577.28;2093994;27;47545;-61
2023/01/22 04:25:58;;;;;;;;;33.00;33.00;;;;;4.13;54.85;102567.63;2088472;27;46669;-61
2023/01/22 04:26:58;;;;;;;;;35.50;33.50;;;;;4.12;54.91;102565.84;2098484;27;45935;-61
2023/01/22 04:27:59;;;;;;;;;36.50;32.25;;;;;4.11;54.96;102567.56;2082149;27;46152;-61
2023/01/22 04:28:59;;;;;;;;;34.00;30.00;;;;;4.10;54.59;102563.16;2095101;27;46509;-60
2023/01/22 04:30:00;;;;;;;;;34.75;34.25;;;;;4.09;54.94;102566.63;2095901;27;46682;-61
2023/01/22 04:31:00;;;;;;;;;35.00;33.25;;;;;4.09;55.02;102563.13;2081223;27;45523;-61
2023/01/22 04:32:01;;;;;;;;;24.50;22.75;;;;;4.07;54.86;102570.94;2094905;27;45998;-61
2023/01/22 04:33:01;;;;;;;;;35.75;31.75;;;;;4.06;54.45;102576.13;2080907;27;46024;-60
2023/01/22 04:34:01;;;;;;;;;37.00;34.00;;;;;4.05;54.78;102571.72;2087374;27;47126;-59
2023/01/22 04:35:03;;;;;;;;;49.50;36.75;;;;;4.05;54.77;102576.97;2097450;27;46872;-60
2023/01/22 04:36:03;;;;;;;;;34.80;31.40;;;;;4.04;54.92;102572.56;2075211;27;45072;-59
2023/01/22 04:37:04;;;;;;;;;38.00;34.25;;;;;4.02;54.75;102571.59;2098726;27;45201;-60
2023/01/22 04:38:06;;;;;;;;;32.00;30.50;;;;;4.03;55.00;102570.75;2087963;28;46309;-61
2023/01/22 04:39:06;;;;;;;;;38.60;37.40;;;;;4.03;54.88;102574.28;2074888;28;46947;-61
2023/01/22 04:40:08;;;;;;;;;34.75;32.50;;;;;4.03;55.06;102560.25;2088292;27;45509;-60
2023/01/22 04:41:08;;;;;;;;;38.80;34.00;;;;;4.03;54.77;102568.13;2091287;27;46608;-61
2023/01/22 04:42:10;;;;;;;;;36.50;34.75;;;;;4.03;55.21;102570.75;2080247;28;46256;-61
2023/01/22 04:43:10;;;;;;;;;40.00;33.20;;;;;4.03;55.19;102568.13;2092343;27;46577;-60
2023/01/22 04:44:10;;;;;;;;;42.75;36.25;;;;;4.01;54.73;102565.47;2078418;27;46765;-62
2023/01/22 04:45:11;;;;;;;;;32.00;32.00;;;;;4.01;54.97;102561.94;2096063;27;46555;-61
2023/01/22 04:46:11;;;;;;;;;35.25;35.00;;;;;4.00;55.41;102568.03;2074655;27;46527;-60
2023/01/22 04:47:12;;;;;;;;;40.50;34.25;;;;;3.99;55.53;102563.63;2071073;28;46153;-60
2023/01/22 04:48:12;;;;;;;;;37.25;31.25;;;;;3.99;55.34;102561.00;2079807;27;46485;-61
2023/01/22 04:49:13;;;;;;;;;39.00;35.75;;;;;4.00;55.22;102562.78;2082389;28;46099;-60